Cardiff, United Kingdom
Current Conditions -  °F | °C
As of 9:50 AM on Tuesday 21 Oct 2014 (Local Time) from EGFF Reporting Station
Broken Clouds Broken Clouds  
Wind Chill: 52°   Ceiling: 3200
Heat Index: 52°   Visibility: 6mi
Dew Point: 43°   Wind: 25mph
Humidity: 71%   Direction: 290°WNW
Pressure: 29.74"   Gusts: NA
Location:  51.48°N, 3.18°W
Report Text: EGFF 210850Z AUTO 29022KT 9999 BKN032 BKN048 11/06 Q1007
Loading
Personal Weather Stations






























Interactive Weather Map
Tropical Storm Tracking
New forecast layout! Learn more

10-Day Weather Forecast

Advertisements
Track Severe Weather on mobile